createdAt,value
2022-07-26T00:00:10.101Z,1.20
2022-07-26T00:02:36.828Z,1.27
2022-07-26T00:05:03.714Z,0.93
2022-07-26T00:07:36.455Z,1.80
2022-07-26T00:10:05.426Z,0.85
2022-07-26T00:12:32.828Z,1.02
2022-07-26T00:14:59.705Z,0.90
2022-07-26T00:17:26.272Z,1.02
2022-07-26T00:19:53.029Z,1.08
2022-07-26T00:22:34.644Z,1.95
2022-07-26T00:25:06.441Z,0.80
2022-07-26T00:27:37.419Z,1.65
2022-07-26T00:30:09.084Z,0.95
2022-07-26T00:32:37.064Z,0.93
2022-07-26T00:35:04.416Z,0.70
2022-07-26T00:37:30.975Z,0.80
2022-07-26T00:39:57.566Z,0.88
2022-07-26T00:42:24.108Z,1.13
2022-07-26T00:44:51.010Z,0.90
2022-07-26T00:47:17.589Z,2.83
2022-07-26T00:49:44.492Z,1.02
2022-07-26T00:52:12.220Z,1.17
2022-07-26T00:54:40.701Z,1.30
2022-07-26T00:57:07.329Z,1.13
2022-07-26T00:59:34.156Z,0.80
2022-07-26T01:02:01.685Z,0.85
2022-07-26T01:04:28.797Z,1.02
2022-07-26T01:06:55.742Z,1.00
2022-07-26T01:09:23.103Z,1.05
2022-07-26T01:11:50.040Z,1.00
2022-07-26T01:14:20.421Z,1.38
2022-07-26T01:16:47.461Z,1.08
2022-07-26T01:19:14.594Z,1.23
2022-07-26T01:21:42.217Z,1.40
2022-07-26T01:24:09.848Z,1.30
2022-07-26T01:26:37.887Z,2.05
2022-07-26T01:29:05.208Z,1.23
2022-07-26T01:31:32.114Z,1.23
2022-07-26T01:33:58.755Z,1.30
2022-07-26T01:36:25.509Z,1.58
2022-07-26T01:38:52.282Z,1.30
2022-07-26T01:41:21.404Z,1.33
2022-07-26T01:44:05.164Z,1.48
2022-07-26T01:46:31.981Z,1.33
2022-07-26T01:48:58.759Z,1.00
2022-07-26T01:51:25.368Z,1.17
2022-07-26T01:53:51.948Z,1.63
2022-07-26T01:56:18.581Z,1.50
2022-07-26T01:58:45.294Z,1.27
2022-07-26T02:01:12.838Z,1.30
2022-07-26T02:03:39.580Z,0.95
2022-07-26T02:06:06.316Z,1.75
2022-07-26T02:08:33.541Z,0.90
2022-07-26T02:11:00.543Z,1.25
2022-07-26T02:13:39.387Z,1.10
2022-07-26T02:16:09.474Z,1.20
2022-07-26T02:18:40.567Z,1.48
2022-07-26T02:21:07.886Z,0.90
2022-07-26T02:23:34.974Z,0.93
2022-07-26T02:26:02.074Z,0.80
2022-07-26T02:28:28.880Z,1.48
2022-07-26T02:30:55.544Z,1.33
2022-07-26T02:33:38.519Z,0.68
2022-07-26T02:36:05.476Z,0.88
2022-07-26T02:38:32.217Z,1.38
2022-07-26T02:40:58.796Z,1.10
2022-07-26T02:43:27.082Z,1.08
2022-07-26T02:46:01.080Z,0.85
2022-07-26T02:48:29.369Z,0.93
2022-07-26T02:50:56.125Z,0.63
2022-07-26T02:53:22.744Z,0.93
2022-07-26T02:55:49.204Z,1.38
2022-07-26T02:58:15.756Z,1.00
2022-07-26T03:00:42.435Z,1.20
2022-07-26T03:03:09.170Z,1.50
2022-07-26T03:05:35.782Z,1.15
2022-07-26T03:08:02.358Z,1.23
2022-07-26T03:10:29.121Z,0.88
2022-07-26T03:12:56.839Z,1.60
2022-07-26T03:15:23.480Z,1.13
2022-07-26T03:17:50.238Z,1.17
2022-07-26T03:20:17.351Z,1.08
2022-07-26T03:22:43.986Z,1.02
2022-07-26T03:25:10.703Z,0.98
2022-07-26T03:27:37.457Z,1.45
2022-07-26T03:30:05.630Z,1.42
2022-07-26T03:32:32.392Z,1.17
2022-07-26T03:34:59.018Z,1.30
2022-07-26T03:37:25.734Z,1.20
2022-07-26T03:40:12.922Z,1.58
2022-07-26T03:42:39.481Z,1.40
2022-07-26T03:45:06.701Z,1.20
2022-07-26T03:47:33.464Z,1.40
2022-07-26T03:50:00.125Z,1.07
2022-07-26T03:52:26.744Z,1.10
2022-07-26T03:54:53.423Z,0.98
2022-07-26T03:57:19.956Z,1.00
2022-07-26T03:59:46.678Z,0.97
2022-07-26T04:02:13.478Z,1.08
2022-07-26T04:04:40.285Z,1.20
2022-07-26T04:07:07.459Z,1.50
2022-07-26T04:09:35.981Z,1.30
2022-07-26T04:12:02.651Z,1.05
2022-07-26T04:14:29.361Z,0.98
2022-07-26T04:16:56.136Z,1.25
2022-07-26T04:19:22.935Z,1.05
2022-07-26T04:21:49.703Z,1.35
2022-07-26T04:24:16.370Z,1.00
2022-07-26T04:26:43.077Z,0.88
2022-07-26T04:29:09.780Z,0.63
2022-07-26T04:31:38.506Z,0.93
2022-07-26T04:34:05.576Z,0.80
2022-07-26T04:36:32.587Z,1.00
2022-07-26T04:38:59.305Z,1.00
2022-07-26T04:41:26.051Z,0.95
2022-07-26T04:43:52.725Z,0.95
2022-07-26T04:46:19.513Z,1.00
2022-07-26T04:48:46.198Z,1.10
2022-07-26T04:51:12.841Z,1.17
2022-07-26T04:53:39.527Z,0.88
2022-07-26T04:56:06.441Z,0.90
2022-07-26T04:58:33.332Z,0.82
2022-07-26T05:01:10.150Z,1.17
2022-07-26T05:03:37.242Z,0.73
2022-07-26T05:06:04.331Z,0.98
2022-07-26T05:08:31.004Z,1.17
2022-07-26T05:10:57.584Z,1.00
2022-07-26T05:13:29.852Z,0.63
2022-07-26T05:15:58.078Z,1.20
2022-07-26T05:18:25.656Z,1.00
2022-07-26T05:20:52.678Z,0.90
2022-07-26T05:23:20.742Z,1.25
2022-07-26T05:25:48.048Z,0.80
2022-07-26T05:28:14.861Z,1.10
2022-07-26T05:30:41.621Z,1.08
2022-07-26T05:33:08.589Z,1.05
2022-07-26T05:35:35.282Z,1.13
2022-07-26T05:38:02.048Z,1.00
2022-07-26T05:40:28.716Z,0.93
2022-07-26T05:42:55.485Z,0.98
2022-07-26T05:45:22.171Z,0.98
2022-07-26T05:47:52.986Z,1.05
2022-07-26T05:50:20.174Z,1.60
2022-07-26T05:52:46.824Z,0.60
2022-07-26T05:55:14.113Z,0.98
2022-07-26T05:57:42.154Z,0.70
2022-07-26T06:00:12.063Z,0.93
2022-07-26T06:02:38.946Z,1.60
2022-07-26T06:05:05.919Z,1.02
2022-07-26T06:07:32.823Z,0.93
2022-07-26T06:10:00.147Z,0.82
2022-07-26T06:12:26.822Z,0.80
2022-07-26T06:14:53.561Z,0.85
2022-07-26T06:17:20.385Z,0.60
2022-07-26T06:19:47.866Z,0.93
2022-07-26T06:22:15.371Z,0.40
2022-07-26T06:24:42.166Z,0.75
2022-07-26T06:27:08.841Z,0.60
2022-07-26T06:29:35.595Z,0.60
2022-07-26T06:32:02.508Z,0.52
2022-07-26T06:34:29.381Z,0.50
2022-07-26T06:36:56.362Z,1.20
2022-07-26T06:39:23.209Z,1.08
2022-07-26T06:41:49.875Z,0.85
2022-07-26T06:44:16.730Z,0.80
2022-07-26T06:46:43.411Z,1.13
2022-07-26T06:49:10.073Z,0.68
2022-07-26T06:51:37.091Z,0.52
2022-07-26T06:54:05.758Z,0.40
2022-07-26T06:56:33.069Z,0.50
2022-07-26T06:58:59.848Z,0.47
2022-07-26T07:01:58.611Z,0.30
2022-07-26T07:04:13.119Z,0.50
2022-07-26T07:06:39.911Z,0.60
2022-07-26T07:09:07.780Z,0.65
2022-07-26T07:11:35.600Z,0.93
2022-07-26T07:14:03.466Z,1.13
2022-07-26T07:16:30.285Z,0.52
2022-07-26T07:18:57.193Z,0.70
2022-07-26T07:21:23.874Z,0.40
2022-07-26T07:23:50.607Z,0.50
2022-07-26T07:26:17.343Z,1.00
2022-07-26T07:28:44.142Z,0.77
2022-07-26T07:31:14.028Z,0.55
2022-07-26T07:33:52.499Z,2.13
2022-07-26T07:36:20.923Z,0.85
2022-07-26T07:38:48.856Z,0.50
2022-07-26T07:41:16.258Z,0.43
2022-07-26T07:43:42.995Z,0.70
2022-07-26T07:46:09.791Z,0.73
2022-07-26T07:48:41.116Z,0.52
2022-07-26T07:51:12.831Z,0.52
2022-07-26T07:53:39.662Z,0.30
2022-07-26T07:56:06.344Z,0.38
2022-07-26T07:58:34.352Z,0.60
2022-07-26T08:01:00.955Z,0.40
2022-07-26T08:03:38.656Z,0.38
2022-07-26T08:06:07.664Z,0.70
2022-07-26T08:08:34.936Z,0.52
2022-07-26T08:11:01.898Z,0.47
2022-07-26T08:13:30.530Z,0.55
2022-07-26T08:15:58.069Z,0.70
2022-07-26T08:18:27.460Z,0.52
2022-07-26T08:20:54.699Z,0.50
2022-07-26T08:23:22.366Z,0.40
2022-07-26T08:25:56.969Z,0.47
2022-07-26T08:28:48.710Z,0.40
2022-07-26T08:31:16.258Z,0.50
2022-07-26T08:33:46.355Z,0.40
2022-07-26T08:36:17.118Z,0.45
2022-07-26T08:38:44.716Z,0.40
2022-07-26T08:41:14.372Z,0.50
2022-07-26T08:43:45.232Z,0.77
2022-07-26T08:46:24.146Z,0.40
2022-07-26T08:48:51.815Z,0.43
2022-07-26T08:51:22.654Z,0.68
2022-07-26T08:53:51.128Z,0.70
2022-07-26T08:56:17.692Z,0.63
2022-07-26T08:58:45.565Z,0.40
2022-07-26T09:01:13.295Z,0.60
2022-07-26T09:03:41.528Z,0.45
2022-07-26T09:06:16.975Z,0.40
2022-07-26T09:08:45.924Z,0.63
2022-07-26T09:11:24.618Z,0.50
2022-07-26T09:13:53.773Z,0.80
2022-07-26T09:16:21.230Z,0.80
2022-07-26T09:18:48.000Z,0.35
2022-07-26T09:21:36.478Z,0.45
2022-07-26T09:24:03.184Z,0.70
2022-07-26T09:26:29.881Z,0.40
2022-07-26T09:29:12.603Z,0.57
2022-07-26T09:31:40.063Z,0.50
2022-07-26T09:34:07.596Z,0.30
2022-07-26T09:36:53.856Z,0.40
2022-07-26T09:39:33.357Z,0.55
2022-07-26T09:42:26.769Z,0.43
2022-07-26T09:44:56.590Z,0.47
2022-07-26T09:47:34.858Z,0.30
2022-07-26T09:50:20.765Z,0.52
2022-07-26T09:53:03.255Z,0.38
2022-07-26T09:55:40.957Z,0.30
2022-07-26T09:58:15.687Z,0.60
2022-07-26T10:00:43.614Z,0.30
2022-07-26T10:03:10.734Z,0.20
2022-07-26T10:05:37.877Z,0.32
2022-07-26T10:08:05.207Z,0.25
2022-07-26T10:10:35.157Z,0.40
2022-07-26T10:13:03.132Z,0.95
2022-07-26T10:15:35.890Z,0.50
2022-07-26T10:18:05.179Z,0.52
2022-07-26T10:21:01.042Z,0.30
2022-07-26T10:23:36.313Z,1.10
2022-07-26T10:26:04.947Z,0.52
2022-07-26T10:28:33.110Z,0.20
2022-07-26T10:31:20.282Z,0.45
2022-07-26T10:33:51.499Z,0.30
2022-07-26T10:36:33.568Z,0.43
2022-07-26T10:39:07.400Z,0.30
2022-07-26T10:41:44.811Z,0.50
2022-07-26T10:44:24.066Z,0.50
2022-07-26T10:47:09.239Z,0.50
2022-07-26T10:49:40.197Z,1.02
2022-07-26T10:52:18.761Z,0.32
2022-07-26T10:54:57.920Z,0.52
2022-07-26T10:57:39.123Z,0.30
2022-07-26T11:00:15.140Z,0.40
2022-07-26T11:02:44.123Z,0.90
2022-07-26T11:05:15.018Z,0.45
2022-07-26T11:08:06.367Z,0.38
2022-07-26T11:10:47.514Z,0.32
2022-07-26T11:13:16.771Z,0.40
2022-07-26T11:16:00.640Z,0.63
2022-07-26T11:18:37.146Z,0.40
2022-07-26T11:21:14.685Z,0.30
2022-07-26T11:23:45.891Z,0.30
2022-07-26T11:26:18.376Z,0.70
2022-07-26T11:28:54.300Z,0.40
2022-07-26T11:31:23.825Z,0.40
2022-07-26T11:34:23.993Z,0.52
2022-07-26T11:36:53.979Z,0.50
2022-07-26T11:39:23.032Z,0.52
2022-07-26T11:41:52.503Z,0.60
2022-07-26T11:44:21.430Z,1.00
2022-07-26T11:46:49.314Z,0.50
2022-07-26T11:52:20.779Z,0.60
2022-07-26T11:54:53.292Z,0.43
2022-07-26T11:57:20.052Z,0.40
2022-07-26T11:59:48.649Z,0.50
2022-07-26T12:02:15.956Z,0.90
2022-07-26T12:04:44.089Z,0.40
2022-07-26T12:07:13.548Z,0.75
2022-07-26T12:09:41.613Z,0.82
2022-07-26T12:12:10.646Z,0.45
2022-07-26T12:14:39.581Z,0.57
2022-07-26T12:17:18.557Z,0.52
2022-07-26T12:19:45.693Z,0.55
2022-07-26T12:22:21.150Z,0.60
2022-07-26T12:24:58.351Z,0.45
2022-07-26T12:27:29.458Z,0.40
2022-07-26T12:30:02.314Z,0.50
2022-07-26T12:32:37.848Z,0.88
2022-07-26T12:35:07.587Z,0.63
2022-07-26T12:37:53.921Z,0.57
2022-07-26T12:40:23.387Z,0.50
2022-07-26T12:42:49.979Z,0.50
2022-07-26T12:45:21.986Z,0.50
2022-07-26T12:47:51.133Z,0.70
2022-07-26T12:50:19.950Z,0.70
2022-07-26T12:52:47.178Z,0.47
2022-07-26T12:55:17.936Z,0.57
2022-07-26T12:57:47.635Z,1.13
2022-07-26T13:00:16.308Z,0.40
2022-07-26T13:02:44.544Z,0.60
2022-07-26T13:05:11.865Z,1.40
2022-07-26T13:07:39.174Z,0.70
2022-07-26T13:10:31.759Z,0.75
2022-07-26T13:12:54.563Z,0.65
2022-07-26T13:15:21.328Z,0.40
2022-07-26T13:17:48.074Z,0.60
2022-07-26T13:20:14.664Z,0.47
2022-07-26T13:22:44.054Z,0.40
2022-07-26T13:25:10.746Z,0.52
2022-07-26T13:27:41.430Z,0.50
2022-07-26T13:30:11.729Z,0.45
2022-07-26T13:32:38.308Z,0.43
2022-07-26T13:35:05.185Z,0.40
2022-07-26T13:37:31.998Z,0.68
2022-07-26T13:39:58.725Z,0.28
2022-07-26T13:42:25.389Z,0.60
2022-07-26T13:44:52.079Z,0.20
2022-07-26T13:47:18.765Z,0.43
2022-07-26T13:49:45.419Z,0.40
2022-07-26T13:52:15.689Z,0.50
2022-07-26T13:54:43.526Z,0.20
2022-07-26T13:57:10.218Z,0.55
2022-07-26T13:59:36.836Z,0.25
2022-07-26T14:02:05.246Z,0.40
2022-07-26T14:04:31.998Z,0.50
2022-07-26T14:06:58.612Z,0.45
2022-07-26T14:09:25.633Z,0.25
2022-07-26T14:11:52.188Z,1.33
2022-07-26T14:14:18.807Z,0.30
2022-07-26T14:16:49.551Z,0.38
2022-07-26T14:19:16.544Z,0.50
2022-07-26T14:21:48.846Z,0.50
2022-07-26T14:24:27.446Z,0.50
2022-07-26T14:26:58.618Z,0.45
2022-07-26T14:29:25.864Z,0.50
2022-07-26T14:31:52.633Z,0.45
2022-07-26T14:34:19.383Z,0.50
2022-07-26T14:36:46.047Z,0.50
2022-07-26T14:39:12.784Z,0.70
2022-07-26T14:41:39.486Z,0.40
2022-07-26T14:44:06.728Z,0.47
2022-07-26T14:46:33.620Z,0.50
2022-07-26T14:49:00.367Z,0.60
2022-07-26T14:51:27.156Z,0.55
2022-07-26T14:53:53.981Z,0.70
2022-07-26T14:56:20.769Z,0.68
2022-07-26T14:58:47.443Z,0.90
2022-07-26T15:01:14.223Z,0.63
2022-07-26T15:03:41.139Z,0.60
2022-07-26T15:06:08.012Z,0.70
2022-07-26T15:08:34.751Z,0.70
2022-07-26T15:11:01.489Z,0.85
2022-07-26T15:13:28.242Z,0.70
2022-07-26T15:15:54.779Z,0.70
2022-07-26T15:18:21.288Z,0.60
2022-07-26T15:20:50.439Z,0.80
2022-07-26T15:23:17.140Z,0.60
2022-07-26T15:25:43.922Z,0.80
2022-07-26T15:28:10.836Z,0.90
2022-07-26T15:30:37.441Z,0.70
2022-07-26T15:33:04.274Z,1.00
2022-07-26T15:35:31.249Z,0.73
2022-07-26T15:37:58.018Z,1.13
2022-07-26T15:40:24.951Z,0.85
2022-07-26T15:42:52.958Z,0.93
2022-07-26T15:45:20.662Z,0.60
2022-07-26T15:48:04.598Z,1.00
2022-07-26T15:50:35.057Z,0.95
2022-07-26T15:53:01.761Z,0.70
2022-07-26T15:55:28.445Z,1.42
2022-07-26T15:57:55.329Z,1.13
2022-07-26T16:00:21.914Z,1.42
2022-07-26T16:02:48.748Z,1.10
2022-07-26T16:05:16.014Z,1.10
2022-07-26T16:07:45.552Z,1.13
2022-07-26T16:10:13.926Z,1.02
2022-07-26T16:12:41.400Z,1.38
2022-07-26T16:15:10.431Z,1.00
2022-07-26T16:17:37.717Z,1.05
2022-07-26T16:20:05.271Z,1.40
2022-07-26T16:22:32.751Z,1.52
2022-07-26T16:24:59.410Z,1.30
2022-07-26T16:27:25.947Z,1.35
2022-07-26T16:29:52.722Z,1.23
2022-07-26T16:32:21.418Z,1.00
2022-07-26T16:34:48.527Z,0.90
2022-07-26T16:37:15.314Z,0.75
2022-07-26T16:39:41.978Z,1.00
2022-07-26T16:42:08.718Z,0.80
2022-07-26T16:44:36.466Z,0.82
2022-07-26T16:47:04.002Z,0.75
2022-07-26T16:49:30.909Z,0.90
2022-07-26T16:51:57.935Z,1.10
2022-07-26T16:54:25.027Z,1.30
2022-07-26T16:56:51.849Z,1.20
2022-07-26T16:59:18.867Z,0.68
2022-07-26T17:01:45.730Z,0.70
2022-07-26T17:04:12.645Z,0.85
2022-07-26T17:06:39.301Z,0.90
2022-07-26T17:09:06.021Z,0.90
2022-07-26T17:11:32.965Z,0.90
2022-07-26T17:13:59.680Z,0.70
2022-07-26T17:16:26.334Z,0.77
2022-07-26T17:18:54.787Z,0.95
2022-07-26T17:21:21.995Z,0.85
2022-07-26T17:23:49.104Z,0.60
2022-07-26T17:26:17.560Z,0.90
2022-07-26T17:28:44.372Z,1.00
2022-07-26T17:31:11.067Z,1.20
2022-07-26T17:33:37.857Z,0.82
2022-07-26T17:36:19.817Z,0.50
2022-07-26T17:38:46.631Z,1.00
2022-07-26T17:41:18.335Z,1.25
2022-07-26T17:43:45.958Z,0.70
2022-07-26T17:46:12.863Z,0.85
2022-07-26T17:48:40.114Z,1.35
2022-07-26T17:51:06.916Z,0.60
2022-07-26T17:53:34.458Z,0.77
2022-07-26T17:56:02.115Z,0.70
2022-07-26T17:58:28.884Z,0.88
2022-07-26T18:00:55.723Z,0.75
2022-07-26T18:03:23.389Z,0.70
2022-07-26T18:05:51.179Z,0.65
2022-07-26T18:08:18.192Z,0.88
2022-07-26T18:10:50.563Z,0.90
2022-07-26T18:13:17.976Z,0.50
2022-07-26T18:15:45.122Z,0.57
2022-07-26T18:18:12.326Z,0.43
2022-07-26T18:20:39.144Z,0.60
2022-07-26T18:23:06.088Z,0.40
2022-07-26T18:25:32.878Z,0.35
2022-07-26T18:28:04.703Z,0.52
2022-07-26T18:30:33.616Z,0.40
2022-07-26T18:33:00.239Z,0.40
2022-07-26T18:35:27.916Z,0.45
2022-07-26T18:37:54.808Z,0.30
2022-07-26T18:40:22.673Z,0.32
2022-07-26T18:42:49.950Z,0.60
2022-07-26T18:45:16.802Z,0.60
2022-07-26T18:47:43.830Z,0.55
2022-07-26T18:50:12.000Z,0.50
2022-07-26T18:52:42.301Z,0.47
2022-07-26T18:55:10.135Z,0.80
2022-07-26T18:57:37.471Z,0.63
2022-07-26T19:00:10.028Z,0.55
2022-07-26T19:02:36.683Z,0.60
2022-07-26T19:05:04.662Z,1.25
2022-07-26T19:07:32.001Z,0.70
2022-07-26T19:10:02.063Z,0.60
2022-07-26T19:12:28.803Z,0.60
2022-07-26T19:14:55.477Z,0.93
2022-07-26T19:17:22.681Z,0.95
2022-07-26T19:19:49.381Z,1.30
2022-07-26T19:22:16.099Z,1.08
2022-07-26T19:24:42.969Z,1.15
2022-07-26T19:27:09.772Z,1.10
2022-07-26T19:29:37.631Z,1.25
2022-07-26T19:32:05.059Z,1.13
2022-07-26T19:34:31.636Z,1.05
2022-07-26T19:36:58.614Z,1.63
2022-07-26T19:39:25.476Z,1.40
2022-07-26T19:41:52.733Z,1.30
2022-07-26T19:44:19.661Z,1.30
2022-07-26T19:46:47.590Z,1.27
2022-07-26T19:49:16.276Z,1.23
2022-07-26T19:51:43.677Z,1.10
2022-07-26T19:54:10.295Z,1.70
2022-07-26T19:56:36.866Z,1.10
2022-07-26T19:59:03.683Z,1.25
2022-07-26T20:01:30.473Z,1.40
2022-07-26T20:03:57.264Z,1.85
2022-07-26T20:06:24.027Z,1.38
2022-07-26T20:08:50.898Z,1.90
2022-07-26T20:11:22.775Z,1.95
2022-07-26T20:13:49.899Z,1.27
2022-07-26T20:16:17.051Z,1.50
2022-07-26T20:18:43.705Z,1.55
2022-07-26T20:21:10.375Z,1.50
2022-07-26T20:23:37.036Z,1.60
2022-07-26T20:26:03.759Z,2.00
2022-07-26T20:28:30.402Z,1.58
2022-07-26T20:30:57.126Z,1.42
2022-07-26T20:33:25.407Z,1.42
2022-07-26T20:35:55.074Z,1.73
2022-07-26T20:38:22.452Z,2.22
2022-07-26T20:40:49.686Z,1.80
2022-07-26T20:43:16.476Z,1.55
2022-07-26T20:45:43.463Z,1.60
2022-07-26T20:48:10.175Z,1.38
2022-07-26T20:50:36.747Z,1.98
2022-07-26T20:53:03.620Z,1.70
2022-07-26T20:55:30.169Z,1.73
2022-07-26T20:57:57.115Z,1.58
2022-07-26T21:00:25.011Z,1.90
2022-07-26T21:02:53.758Z,1.80
2022-07-26T21:05:20.870Z,1.60
2022-07-26T21:07:53.923Z,1.70
2022-07-26T21:10:26.998Z,1.60
2022-07-26T21:12:54.667Z,1.50
2022-07-26T21:15:21.300Z,1.63
2022-07-26T21:17:47.946Z,1.20
2022-07-26T21:20:14.472Z,1.50
2022-07-26T21:22:41.172Z,1.65
2022-07-26T21:25:08.245Z,1.83
2022-07-26T21:27:34.940Z,1.98
2022-07-26T21:30:02.182Z,1.38
2022-07-26T21:32:31.697Z,1.38
2022-07-26T21:34:58.909Z,1.48
2022-07-26T21:37:25.884Z,1.63
2022-07-26T21:39:52.605Z,1.60
2022-07-26T21:42:19.285Z,1.30
2022-07-26T21:44:45.978Z,1.65
2022-07-26T21:47:12.626Z,1.38
2022-07-26T21:49:39.182Z,0.98
2022-07-26T21:52:06.117Z,0.77
2022-07-26T21:54:32.888Z,0.98
2022-07-26T21:56:59.523Z,0.70
2022-07-26T21:59:26.267Z,0.60
2022-07-26T22:01:53.018Z,1.20
2022-07-26T22:04:19.714Z,0.60
2022-07-26T22:06:46.387Z,0.52
2022-07-26T22:09:13.371Z,0.68
2022-07-26T22:11:40.169Z,0.40
2022-07-26T22:14:08.521Z,0.45
2022-07-26T22:16:35.848Z,0.60
2022-07-26T22:19:02.660Z,0.50
2022-07-26T22:21:29.467Z,0.50
2022-07-26T22:23:56.151Z,0.60
2022-07-26T22:26:26.334Z,0.60
2022-07-26T22:28:53.117Z,0.57
2022-07-26T22:31:19.774Z,0.40
2022-07-26T22:33:46.508Z,0.47
2022-07-26T22:36:13.158Z,0.30
2022-07-26T22:38:39.919Z,0.55
2022-07-26T22:41:06.572Z,0.75
2022-07-26T22:43:33.180Z,0.50
2022-07-26T22:45:59.886Z,0.60
2022-07-26T22:48:26.478Z,0.50
2022-07-26T22:50:53.138Z,0.52
2022-07-26T22:53:19.747Z,0.40
2022-07-26T22:55:46.313Z,0.45
2022-07-26T22:58:12.926Z,0.50
2022-07-26T23:00:39.661Z,0.50
2022-07-26T23:03:14.637Z,0.50
2022-07-26T23:05:47.853Z,0.52
2022-07-26T23:08:46.389Z,0.60
2022-07-26T23:11:01.774Z,0.50
2022-07-26T23:13:28.455Z,0.60
2022-07-26T23:16:00.310Z,0.43
2022-07-26T23:18:28.208Z,0.30
2022-07-26T23:20:54.830Z,0.38
2022-07-26T23:23:21.506Z,0.70
2022-07-26T23:25:48.217Z,0.50
2022-07-26T23:28:24.737Z,0.50
2022-07-26T23:31:03.132Z,0.30
2022-07-26T23:33:50.922Z,0.88
2022-07-26T23:36:16.389Z,0.55
2022-07-26T23:38:42.990Z,0.52
2022-07-26T23:41:09.760Z,0.40
2022-07-26T23:43:36.479Z,0.63
2022-07-26T23:46:02.958Z,0.40
2022-07-26T23:48:30.487Z,0.60
2022-07-26T23:50:57.273Z,0.40
2022-07-26T23:53:26.764Z,0.63
2022-07-26T23:55:54.184Z,0.57
2022-07-26T23:58:21.075Z,0.47
